createdAt,value
2018-05-17T00:02:22.234Z,14.81
2018-05-17T00:05:27.456Z,14.74
2018-05-17T00:08:32.668Z,14.72
2018-05-17T00:11:37.897Z,14.68
2018-05-17T00:14:43.846Z,14.55
2018-05-17T00:17:50.520Z,14.58
2018-05-17T00:20:56.355Z,14.52
2018-05-17T00:24:01.572Z,14.42
2018-05-17T00:27:08.739Z,14.31
2018-05-17T00:30:13.967Z,14.36
2018-05-17T00:33:19.819Z,14.30
2018-05-17T00:36:25.238Z,14.27
2018-05-17T00:39:31.286Z,14.21
2018-05-17T00:42:37.421Z,14.14
2018-05-17T00:45:44.473Z,14.07
2018-05-17T00:48:51.273Z,14.00
2018-05-17T00:51:56.494Z,13.89
2018-05-17T00:55:01.708Z,13.85
2018-05-17T00:58:07.861Z,13.86
2018-05-17T01:01:13.108Z,13.83
2018-05-17T01:04:19.422Z,13.70
2018-05-17T01:07:25.217Z,13.62
2018-05-17T01:10:30.164Z,13.62
2018-05-17T01:13:36.317Z,13.42
2018-05-17T01:16:41.530Z,13.45
2018-05-17T01:19:47.965Z,13.44
2018-05-17T01:22:53.219Z,13.37
2018-05-17T01:25:59.198Z,13.28
2018-05-17T01:29:05.310Z,13.39
2018-05-17T01:32:10.745Z,13.26
2018-05-17T01:35:16.669Z,13.22
2018-05-17T01:38:25.947Z,13.11
2018-05-17T01:41:31.170Z,13.27
2018-05-17T01:44:37.005Z,13.19
2018-05-17T01:47:42.754Z,13.09
2018-05-17T01:50:48.800Z,13.10
2018-05-17T01:53:54.939Z,13.07
2018-05-17T01:57:00.151Z,13.02
2018-05-17T02:00:05.702Z,13.09
2018-05-17T02:03:11.016Z,13.09
2018-05-17T02:06:17.196Z,12.95
2018-05-17T02:09:23.015Z,12.86
2018-05-17T02:12:27.951Z,12.84
2018-05-17T02:15:34.098Z,12.84
2018-05-17T02:18:39.371Z,12.73
2018-05-17T02:21:44.867Z,12.77
2018-05-17T03:01:49.689Z,12.43
2018-05-17T03:04:55.148Z,12.36
2018-05-17T03:08:00.381Z,12.34
2018-05-17T03:11:06.157Z,12.28
2018-05-17T03:14:12.219Z,12.31
2018-05-17T03:17:17.423Z,12.35
2018-05-17T03:20:23.232Z,12.28
2018-05-17T03:23:28.457Z,12.25
2018-05-17T03:26:34.605Z,12.18
2018-05-17T03:29:39.812Z,12.18
2018-05-17T03:32:45.557Z,12.29
2018-05-17T03:35:50.763Z,12.31
2018-05-17T03:38:56.793Z,12.23
2018-05-17T03:42:02.908Z,12.34
2018-05-17T03:45:08.338Z,12.25
2018-05-17T03:48:14.097Z,12.15
2018-05-17T03:51:19.315Z,12.20
2018-05-17T03:54:25.437Z,12.14
2018-05-17T03:57:32.176Z,12.18
2018-05-17T04:00:49.000Z,12.21
2018-05-17T04:04:05.969Z,12.12
2018-05-17T04:07:11.545Z,12.13
2018-05-17T04:10:16.498Z,12.17
2018-05-17T04:13:21.701Z,12.20
2018-05-17T04:16:28.743Z,12.16
2018-05-17T04:19:35.602Z,12.22
2018-05-17T04:22:41.137Z,12.23
2018-05-17T04:25:47.344Z,12.28
2018-05-17T04:28:53.168Z,12.28
2018-05-17T04:31:58.380Z,12.33
2018-05-17T04:35:03.643Z,12.39
2018-05-17T04:38:08.847Z,12.42
2018-05-17T04:41:14.988Z,12.46
2018-05-17T04:44:20.217Z,12.49
2018-05-17T04:47:25.438Z,12.51
2018-05-17T04:50:31.379Z,12.53
2018-05-17T04:53:37.449Z,12.55
2018-05-17T04:56:42.660Z,12.58
2018-05-17T04:59:47.864Z,12.58
2018-05-17T05:02:53.099Z,12.60
2018-05-17T05:05:59.312Z,12.62
2018-05-17T05:09:03.954Z,12.64
2018-05-17T05:12:09.170Z,12.67
2018-05-17T05:15:16.010Z,12.70
2018-05-17T05:18:21.812Z,12.74
2018-05-17T05:21:26.741Z,12.77
2018-05-17T05:24:31.956Z,12.81
2018-05-17T05:27:37.210Z,12.86
2018-05-17T05:30:43.275Z,12.89
2018-05-17T05:33:49.297Z,12.95
2018-05-17T05:36:55.342Z,13.01
2018-05-17T05:40:00.548Z,13.05
2018-05-17T05:43:06.520Z,13.09
2018-05-17T05:46:12.346Z,13.11
2018-05-17T05:49:17.554Z,13.14
2018-05-17T05:52:22.980Z,13.18
2018-05-17T05:55:28.705Z,13.20
2018-05-17T05:58:33.925Z,13.23
2018-05-17T06:01:39.528Z,13.24
2018-05-17T06:04:45.168Z,13.30
2018-05-17T06:07:50.417Z,13.33
2018-05-17T06:10:56.058Z,13.35
2018-05-17T06:14:02.231Z,13.40
2018-05-17T06:17:07.480Z,13.44
2018-05-17T06:20:13.192Z,13.47
2018-05-17T06:23:18.664Z,13.49
2018-05-17T06:26:24.784Z,13.51
2018-05-17T06:29:30.021Z,13.56
2018-05-17T06:32:35.970Z,13.59
2018-05-17T06:35:41.709Z,13.63
2018-05-17T06:38:46.662Z,13.67
2018-05-17T06:41:52.385Z,13.72
2018-05-17T06:44:58.515Z,13.76
2018-05-17T06:48:04.132Z,13.83
2018-05-17T06:51:10.072Z,13.87
2018-05-17T06:54:16.938Z,13.92
2018-05-17T06:57:22.756Z,13.97
2018-05-17T07:00:28.500Z,14.01
2018-05-17T07:03:34.236Z,14.05
2018-05-17T07:06:41.287Z,14.09
2018-05-17T07:09:47.110Z,14.13
2018-05-17T07:12:52.804Z,14.21
2018-05-17T07:15:58.926Z,14.23
2018-05-17T07:19:04.134Z,14.27
2018-05-17T07:22:10.258Z,14.32
2018-05-17T07:25:15.888Z,14.36
2018-05-17T07:28:21.606Z,14.41
2018-05-17T07:31:27.587Z,14.44
2018-05-17T07:34:32.981Z,14.50
2018-05-17T07:37:38.731Z,14.55
2018-05-17T07:40:43.988Z,14.60
2018-05-17T07:43:49.172Z,14.67
2018-05-17T07:46:54.852Z,14.73
2018-05-17T07:50:00.869Z,14.81
2018-05-17T07:53:06.615Z,14.86
2018-05-17T07:56:12.377Z,14.90
2018-05-17T07:59:18.499Z,14.94
2018-05-17T08:02:24.645Z,14.99
2018-05-17T08:05:30.729Z,15.05
2018-05-17T08:08:36.848Z,15.09
2018-05-17T08:11:42.780Z,15.15
2018-05-17T08:14:48.877Z,15.22
2018-05-17T08:17:55.060Z,15.28
2018-05-17T08:21:01.404Z,15.35
2018-05-17T08:24:06.608Z,15.43
2018-05-17T08:27:11.834Z,15.51
2018-05-17T08:30:17.234Z,15.59
2018-05-17T08:33:23.376Z,15.66
2018-05-17T08:36:28.680Z,15.75
2018-05-17T08:39:34.013Z,15.84
2018-05-17T08:42:40.995Z,15.92
2018-05-17T08:45:46.920Z,16.01
2018-05-17T08:48:52.646Z,16.10
2018-05-17T08:51:58.286Z,16.20
2018-05-17T08:55:04.373Z,16.30
2018-05-17T08:58:10.509Z,16.35
2018-05-17T09:01:16.643Z,16.42
2018-05-17T09:04:22.685Z,16.51
2018-05-17T09:07:28.813Z,16.57
2018-05-17T09:10:34.832Z,16.64
2018-05-17T09:13:41.073Z,16.69
2018-05-17T09:16:46.458Z,16.73
2018-05-17T09:19:52.184Z,16.77
2018-05-17T09:22:58.317Z,16.77
2018-05-17T09:26:04.108Z,16.81
2018-05-17T09:29:09.345Z,16.80
2018-05-17T09:32:15.589Z,16.88
2018-05-17T09:35:21.524Z,16.98
2018-05-17T09:38:26.809Z,17.06
2018-05-17T09:41:32.071Z,17.11
2018-05-17T09:44:38.348Z,17.17
2018-05-17T09:47:44.686Z,17.23
2018-05-17T09:50:50.899Z,17.31
2018-05-17T09:53:57.959Z,17.34
2018-05-17T09:57:03.338Z,17.37
2018-05-17T10:00:09.244Z,17.44
2018-05-17T10:03:14.453Z,17.41
2018-05-17T10:06:19.660Z,17.52
2018-05-17T10:09:24.882Z,17.58
2018-05-17T10:12:30.018Z,17.59
2018-05-17T10:15:36.129Z,17.65
2018-05-17T10:18:42.251Z,17.75
2018-05-17T10:21:49.219Z,17.84
2018-05-17T10:24:54.481Z,17.90
2018-05-17T10:27:59.724Z,17.87
2018-05-17T10:31:06.684Z,17.91
2018-05-17T10:34:14.411Z,17.92
2018-05-17T10:37:19.622Z,17.96
2018-05-17T10:40:24.845Z,17.92
2018-05-17T10:43:30.062Z,17.97
2018-05-17T10:46:35.263Z,18.01
2018-05-17T10:49:40.506Z,18.07
2018-05-17T10:52:45.704Z,18.11
2018-05-17T10:55:50.920Z,18.14
2018-05-17T10:58:56.128Z,18.13
2018-05-17T11:02:01.761Z,18.13
2018-05-17T11:05:07.880Z,18.17
2018-05-17T11:08:14.997Z,18.18
2018-05-17T11:11:20.201Z,18.20
2018-05-17T11:14:26.212Z,18.22
2018-05-17T11:17:31.432Z,18.22
2018-05-17T11:20:37.164Z,18.22
2018-05-17T11:23:42.393Z,18.24
2018-05-17T11:26:47.600Z,18.23
2018-05-17T11:29:53.752Z,18.24
2018-05-17T11:32:59.026Z,18.26
2018-05-17T11:36:04.399Z,18.25
2018-05-17T11:39:09.277Z,18.23
2018-05-17T11:42:14.914Z,18.24
2018-05-17T11:45:21.047Z,18.25
2018-05-17T11:48:27.061Z,18.24
2018-05-17T11:51:33.114Z,18.24
2018-05-17T11:54:38.748Z,18.23
2018-05-17T11:57:43.684Z,18.22
2018-05-17T12:00:49.753Z,18.23
2018-05-17T12:03:55.602Z,18.24
2018-05-17T12:07:00.828Z,18.26
2018-05-17T12:10:06.273Z,18.26
2018-05-17T12:13:11.476Z,18.29
2018-05-17T12:16:16.688Z,18.31
2018-05-17T12:19:22.344Z,18.31
2018-05-17T12:22:28.221Z,18.35
2018-05-17T12:25:33.881Z,18.38
2018-05-17T12:28:39.088Z,18.40
2018-05-17T12:31:45.319Z,18.43
2018-05-17T12:34:51.292Z,18.43
2018-05-17T12:37:57.864Z,18.45
2018-05-17T12:41:04.421Z,18.45
2018-05-17T12:44:09.633Z,18.45
2018-05-17T12:47:15.654Z,18.32
2018-05-17T12:50:20.859Z,18.32
2018-05-17T12:53:26.912Z,18.32
2018-05-17T12:56:32.936Z,18.29
2018-05-17T12:59:39.103Z,18.27
2018-05-17T13:02:45.235Z,18.21
2018-05-17T13:05:50.658Z,18.18
2018-05-17T13:08:55.872Z,18.17
2018-05-17T13:12:01.898Z,18.12
2018-05-17T13:15:07.524Z,18.09
2018-05-17T13:18:13.558Z,18.05
2018-05-17T13:21:19.499Z,18.04
2018-05-17T13:24:24.728Z,18.00
2018-05-17T13:27:30.852Z,17.91
2018-05-17T13:30:37.509Z,17.92
2018-05-17T13:33:43.121Z,17.90
2018-05-17T13:36:49.082Z,17.84
2018-05-17T13:39:55.021Z,17.81
2018-05-17T13:43:00.236Z,17.76
2018-05-17T13:46:06.314Z,17.73
2018-05-17T13:49:12.165Z,17.65
2018-05-17T13:52:18.166Z,17.62
2018-05-17T13:55:24.263Z,17.47
2018-05-17T13:58:30.208Z,17.37
2018-05-17T14:01:35.422Z,17.37
2018-05-17T14:04:41.174Z,17.18
2018-05-17T14:07:46.818Z,17.12
2018-05-17T14:10:52.861Z,17.17
2018-05-17T14:13:58.070Z,17.01
2018-05-17T14:17:03.286Z,16.88
2018-05-17T14:20:09.046Z,16.87
2018-05-17T14:23:14.291Z,16.96
2018-05-17T14:26:19.681Z,16.98
2018-05-17T14:29:26.388Z,16.98
2018-05-17T14:32:31.577Z,16.96
2018-05-17T14:35:36.793Z,16.89
2018-05-17T14:38:42.937Z,16.82
2018-05-17T14:41:48.333Z,16.77
2018-05-17T14:44:54.458Z,16.60
2018-05-17T14:48:00.576Z,16.61
2018-05-17T14:51:07.449Z,16.44
2018-05-17T14:54:13.753Z,16.34
2018-05-17T14:57:19.391Z,16.25
2018-05-17T15:00:25.540Z,16.22
2018-05-17T15:03:31.569Z,16.28
2018-05-17T15:06:37.696Z,16.30
2018-05-17T15:09:43.724Z,16.24
2018-05-17T15:12:48.928Z,16.27
2018-05-17T15:15:54.562Z,16.15
2018-05-17T15:18:59.761Z,16.10
2018-05-17T15:22:04.632Z,16.14
2018-05-17T15:25:11.212Z,16.07
2018-05-17T15:28:17.067Z,15.93
2018-05-17T15:31:23.911Z,16.01
2018-05-17T15:34:29.138Z,15.93
2018-05-17T15:37:34.340Z,15.91
2018-05-17T15:40:39.765Z,15.89
2018-05-17T15:43:44.966Z,15.77
2018-05-17T15:46:50.177Z,15.65
2018-05-17T15:49:55.794Z,15.55
2018-05-17T15:53:02.546Z,15.40
2018-05-17T15:56:08.469Z,15.49
2018-05-17T15:59:14.090Z,15.54
2018-05-17T16:02:20.782Z,15.47
2018-05-17T16:05:26.163Z,15.46
2018-05-17T16:08:30.862Z,15.34
2018-05-17T16:11:35.980Z,15.31
2018-05-17T16:14:40.979Z,15.21
2018-05-17T16:17:46.949Z,15.18
2018-05-17T16:20:52.913Z,15.11
2018-05-17T16:23:58.431Z,15.15
2018-05-17T16:27:04.429Z,15.15
2018-05-17T16:30:10.266Z,15.05
2018-05-17T16:33:16.472Z,15.10
2018-05-17T16:36:21.721Z,15.06
2018-05-17T16:39:29.757Z,14.95
2018-05-17T16:42:38.391Z,14.95
2018-05-17T16:45:45.312Z,14.91
2018-05-17T16:48:51.552Z,14.90
2018-05-17T16:51:56.532Z,14.85
2018-05-17T16:55:02.521Z,14.89
2018-05-17T16:58:07.759Z,14.93
2018-05-17T17:01:14.152Z,14.90
2018-05-17T17:04:19.396Z,14.85
2018-05-17T17:07:28.110Z,14.83
2018-05-17T17:10:34.253Z,14.85
2018-05-17T17:13:40.746Z,14.76
2018-05-17T17:16:48.216Z,14.65
2018-05-17T17:19:54.229Z,14.67
2018-05-17T17:23:01.112Z,14.64
2018-05-17T17:26:06.936Z,14.73
2018-05-17T17:29:13.809Z,14.73
2018-05-17T17:32:19.019Z,14.65
2018-05-17T17:35:25.161Z,14.68
2018-05-17T17:38:30.888Z,14.62
2018-05-17T17:41:36.134Z,14.62
2018-05-17T17:44:41.987Z,14.52
2018-05-17T17:47:47.221Z,14.50
2018-05-17T17:50:52.904Z,14.43
2018-05-17T17:53:58.721Z,14.49
2018-05-17T17:57:03.725Z,14.56
2018-05-17T18:00:08.962Z,14.46
2018-05-17T18:03:14.189Z,14.50
2018-05-17T18:06:20.041Z,14.45
2018-05-17T18:09:26.387Z,14.41
2018-05-17T18:12:33.065Z,14.47
2018-05-17T18:15:38.268Z,14.38
2018-05-17T18:21:48.172Z,14.35
2018-05-17T18:24:54.023Z,14.30
2018-05-17T18:28:00.128Z,14.29
2018-05-17T18:31:05.579Z,14.12
2018-05-17T18:34:10.808Z,14.12
2018-05-17T18:37:16.012Z,14.09
2018-05-17T18:40:22.032Z,14.14
2018-05-17T18:43:27.859Z,14.00
2018-05-17T18:46:34.267Z,14.05
2018-05-17T18:49:40.185Z,14.01
2018-05-17T18:52:45.410Z,13.96
2018-05-17T18:55:51.869Z,13.91
2018-05-17T18:58:56.905Z,13.92
2018-05-17T19:02:02.121Z,13.88
2018-05-17T19:05:08.086Z,13.87
2018-05-17T19:08:13.296Z,13.81
2018-05-17T19:11:19.133Z,13.77
2018-05-17T19:14:24.899Z,13.71
2018-05-17T19:17:30.341Z,13.70
2018-05-17T19:20:35.544Z,13.70
2018-05-17T19:23:41.392Z,13.67
2018-05-17T19:26:47.123Z,13.67
2018-05-17T19:29:52.356Z,13.68
2018-05-17T19:32:58.433Z,13.66
2018-05-17T19:36:03.643Z,13.63
2018-05-17T19:39:09.805Z,13.60
2018-05-17T19:42:16.433Z,13.69
2018-05-17T19:45:21.899Z,13.64
2018-05-17T19:48:27.919Z,13.56
2018-05-17T19:51:33.686Z,13.59
2018-05-17T19:54:39.431Z,13.58
2018-05-17T19:57:44.662Z,13.58
2018-05-17T20:00:50.856Z,13.53
2018-05-17T20:03:56.147Z,13.53
2018-05-17T20:07:01.948Z,13.52
2018-05-17T20:10:07.187Z,13.48
2018-05-17T20:13:13.498Z,13.46
2018-05-17T20:16:20.557Z,13.45
2018-05-17T20:19:25.768Z,13.44
2018-05-17T20:22:31.853Z,13.40
2018-05-17T20:25:37.092Z,13.39
2018-05-17T20:28:42.310Z,13.36
2018-05-17T20:31:47.545Z,13.41
2018-05-17T20:34:52.755Z,13.44
2018-05-17T20:37:58.822Z,13.45
2018-05-17T20:41:03.803Z,13.44
2018-05-17T20:44:09.832Z,13.47
2018-05-17T20:47:15.549Z,13.49
2018-05-17T20:50:20.760Z,13.43
2018-05-17T20:53:26.908Z,13.44
2018-05-17T20:56:33.030Z,13.44
2018-05-17T20:59:38.341Z,13.50
2018-05-17T21:02:44.274Z,13.55
2018-05-17T21:05:50.400Z,13.51
2018-05-17T21:08:56.037Z,13.53
2018-05-17T21:12:02.156Z,13.55
2018-05-17T21:15:07.459Z,13.57
2018-05-17T21:18:12.662Z,13.55
2018-05-17T21:21:18.577Z,13.56
2018-05-17T21:24:24.518Z,13.56
2018-05-17T21:27:29.735Z,13.56
2018-05-17T21:30:34.957Z,13.57
2018-05-17T21:33:40.156Z,13.55
2018-05-17T21:36:45.398Z,13.55
2018-05-17T21:39:50.601Z,13.56
2018-05-17T21:42:56.788Z,13.56
2018-05-17T21:46:02.426Z,13.52
2018-05-17T21:49:07.638Z,13.54
2018-05-17T21:52:13.391Z,13.50
2018-05-17T21:55:19.120Z,13.58
2018-05-17T21:58:24.864Z,13.59
2018-05-17T22:01:31.314Z,13.61
2018-05-17T22:04:36.949Z,13.60
2018-05-17T22:07:42.800Z,13.57
2018-05-17T22:10:48.936Z,13.56
2018-05-17T22:13:54.242Z,13.53
2018-05-17T22:17:00.093Z,13.51
2018-05-17T22:20:05.310Z,13.49
2018-05-17T22:23:10.524Z,13.54
2018-05-17T22:26:16.650Z,13.56
2018-05-17T22:29:22.801Z,13.57
2018-05-17T22:32:28.419Z,13.57
2018-05-17T22:35:34.428Z,13.54
2018-05-17T22:38:40.548Z,13.47
2018-05-17T22:41:45.452Z,13.50
2018-05-17T22:44:50.660Z,13.53
2018-05-17T22:47:56.557Z,13.55
2018-05-17T22:51:02.181Z,13.56
2018-05-17T22:54:07.112Z,13.54
2018-05-17T22:57:13.477Z,13.55
2018-05-17T23:00:18.930Z,13.55
2018-05-17T23:03:24.529Z,13.54
2018-05-17T23:06:29.695Z,13.54
2018-05-17T23:09:35.100Z,13.52
2018-05-17T23:12:40.547Z,13.53
2018-05-17T23:15:46.565Z,13.51
2018-05-17T23:18:51.776Z,13.51
2018-05-17T23:21:56.718Z,13.43
2018-05-17T23:25:01.931Z,13.39
2018-05-17T23:28:07.354Z,13.39
2018-05-17T23:31:12.564Z,13.37
2018-05-17T23:34:17.970Z,13.38
2018-05-17T23:37:23.763Z,13.41
2018-05-17T23:44:03.316Z,13.45
2018-05-17T23:47:09.329Z,13.38
2018-05-17T23:50:16.256Z,13.42
2018-05-17T23:53:22.075Z,13.43
2018-05-17T23:56:28.237Z,13.35
2018-05-17T23:59:33.455Z,13.37
